Flight Track Log - Related Links

Times and Time Zones

All times are in EDT time to prevent confusion due to time zone crossing. See the N61736 flight status page for this flight to view local times or setup timezone preferences in your user account.

Time Position Orientation Groundspeed Altitude Reporting Facility
EDT Latitude Longitude Course Direction KTS MPH feet Rate Location/Type
Sat 11:22:25 PM 29.6506 -94.0800 68° East 110 127 4,500  Level Houston Center
Sat 11:23:25 PM 29.6614 -94.0492 69° East 104 120 4,500  Level Houston Center
Sat 11:24:25 PM 29.6725 -94.0158 72° East 104 120 4,500  Level Houston Center
Sat 11:25:25 PM 29.6814 -93.9850 66° East 104 120 4,500  Level Houston Center
Sat 11:26:25 PM 29.6944 -93.9519 64° Northeast 104 120 4,500  Level Houston Center
Sat 11:27:25 PM 29.7075 -93.9211 71° East 104 120 4,500  Level Houston Center
Sat 11:28:25 PM 29.7186 -93.8831 73° East 109 125 4,500  Level Houston Center
Sat 11:29:25 PM 29.7275 -93.8497 74° East 109 125 4,500  Level Houston Center
Sat 11:30:25 PM 29.7364 -93.8142 74° East 109 125 4,500  Level Houston Center
Sat 11:31:25 PM 29.7453 -93.7783 77° East 109 125 4,500 50 Level Houston Center
Sat 11:32:25 PM 29.7519 -93.7450 85° East 104 120 4,600 -50 Climbing Houston Center
Sat 11:33:25 PM 29.7547 -93.7069 82° East 109 125 4,400 -150 Descending Houston Center
Sat 11:34:25 PM 29.7594 -93.6686 82° East 114 131 4,300 -100 Descending Houston Center
Sat 11:35:25 PM 29.7642 -93.6306 86° East 114 131 4,200 -150 Descending Houston Center
Sat 11:36:25 PM 29.7669 -93.5897 86° East 119 137 4,000 -100 Descending Houston Center
Sat 11:37:25 PM 29.7694 -93.5517 85° East 119 137 4,000 -50 Level Houston Center
Sat 11:38:25 PM 29.7722 -93.5133 86° East 119 137 3,900 -100 Descending Houston Center
Sat 11:39:25 PM 29.7747 -93.4750 82° East 124 143 3,800 -100 Descending Houston Center
Sat 11:40:25 PM 29.7794 -93.4369 79° East 119 137 3,700 -50 Descending Houston Center
Sat 11:41:25 PM 29.7861 -93.3986 79° East 119 137 3,700 -50 Level Houston Center
Sat 11:42:25 PM 29.7928 -93.3606 77° East 119 137 3,600 -50 Descending Houston Center
Sat 11:43:25 PM 29.7997 -93.3247 86° East 119 137 3,600  Level Houston Center
Sat 11:44:25 PM 29.8022 -93.2864 81° East 119 137 3,600  Level Houston Center
Sat 11:45:25 PM 29.8067 -93.2531 75° East 119 137 3,600  Level Houston Center
Sat 11:46:25 PM 29.8156 -93.2150 85° East 119 137 3,600 -50 Level Houston Center
Sat 11:47:25 PM 29.8181 -93.1814 79° East 114 131 3,500 -100 Descending Houston Center
Sat 11:48:25 PM 29.8247 -93.1431 83° East 114 131 3,400 -100 Descending Houston Center
Sat 11:49:25 PM 29.8292 -93.1025 86° East 114 131 3,300 -150 Descending Houston Center
Sat 11:50:25 PM 29.8317 -93.0642 82° East 119 137 3,100 -150 Descending Houston Center
Sat 11:51:25 PM 29.8364 -93.0261 82° East 119 137 3,000 -100 Descending Houston Center
Sat 11:52:25 PM 29.8408 -92.9878 86° East 119 137 2,900 -100 Descending Houston Center
Sat 11:53:25 PM 29.8433 -92.9469 78° East 119 137 2,800 -100 Descending Houston Center
Sat 11:54:25 PM 29.8500 -92.9111 86° East 119 137 2,700 -150 Descending Houston Center
Sat 11:55:25 PM 29.8525 -92.8706 82° East 119 137 2,500 -100 Descending Houston Center
Sat 11:56:25 PM 29.8569 -92.8347 78° East 119 137 2,500  Level Houston Center
Sat 11:57:25 PM 29.8633 -92.7989 79° East 119 137 2,500  Level Houston Center
Sat 11:58:25 PM 29.8700 -92.7606 82° East 119 137 2,500  Level Houston Center
Sat 11:59:25 PM 29.8744 -92.7247 75° East 119 137 2,500  Level Houston Center
Sun 12:00:25 AM 29.8831 -92.6889 82° East 119 137 2,500 50 Level Houston Center
Sun 12:01:25 AM 29.8875 -92.6531 78° East 119 137 2,600 50 Climbing Houston Center
Sun 12:02:25 AM 29.8942 -92.6169 78° East 114 131 2,600  Level Houston Center

Login

Don't have an account? Register now (free) for customized features, flight alerts, and more!